M I D A S
Marine Information and Data Acquisition System
Tripno 917 of the Zeeleeuw from 2005-06-15 06:13:24 to 2005-06-15 14:31:44
Back to CruiseResearch ActivitiesStationsMapUnderway DataData graphs

EquipmentUnitsComment
TimeDGPSUTC
LatitudeDGPSDM.mWGS84
LongitudeDGPSDM.mWGS84
HeadingGyrodeg 
SOGDGPSknotsSpeed over ground
COGDGPSdegCourse over ground
DepthEcho soundermeters200 kHz
Missing or incorrect values are displayed as -999
Navigation data collected by the RV Zeeleeuw from 2005-06-15 06:12:57 to 2005-06-15 14:43:59
                                                                                    Next 1000 lines
Time Latitude Longitude Heading SOG COG Depth
2005-06-15 06:13:06 51°13.599 2°56.109 119 0.1 186 8.8
2005-06-15 06:13:12 51°13.598 2°56.109 117.5 0.1 186 8.8
2005-06-15 06:13:17 51°13.598 2°56.109 115.4 0.1 186 8.8
2005-06-15 06:13:22 51°13.598 2°56.109 113.5 0.1 186 8.8
2005-06-15 06:13:27 51°13.598 2°56.108 111.5 0.1 186 8.9
2005-06-15 06:13:32 51°13.598 2°56.107 110 -999 -999 8.8
2005-06-15 06:13:37 51°13.598 2°56.105 108.9 -999 -999 8.8
2005-06-15 06:13:42 51°13.599 2°56.102 108.2 1.2 283 8.9
2005-06-15 06:13:47 51°13.599 2°56.099 108 1.2 283 8.8
2005-06-15 06:13:52 51°13.6 2°56.094 108.1 1.2 283 8.9
2005-06-15 06:13:57 51°13.601 2°56.09 108.6 2.1 287 6.8
2005-06-15 06:14:02 51°13.602 2°56.085 109.5 2.3 286 -999
2005-06-15 06:14:07 51°13.603 2°56.079 110.6 2.3 286 -999
2005-06-15 06:14:13 51°13.605 2°56.073 111.4 2.8 290 -999
2005-06-15 06:14:17 51°13.606 2°56.068 112.1 2.7 289 -999
2005-06-15 06:14:22 51°13.607 2°56.063 112.4 2.5 289 -999
2005-06-15 06:14:28 51°13.608 2°56.06 112.9 2.1 293 -999
2005-06-15 06:14:33 51°13.608 2°56.059 113.8 0.9 292 -999
2005-06-15 06:14:37 51°13.608 2°56.059 115.2 0.9 292 4.8
2005-06-15 06:14:42 51°13.608 2°56.061 118.4 0.9 292 5
2005-06-15 06:14:47 51°13.607 2°56.062 121.2 0.6 110 6.5
2005-06-15 06:14:52 51°13.606 2°56.064 125.1 1 123 -999
2005-06-15 06:14:57 51°13.605 2°56.067 128.6 1.2 120 4.8
2005-06-15 06:15:02 51°13.604 2°56.07 131.1 1.2 120 4.7
2005-06-15 06:15:08 51°13.602 2°56.073 133.6 1.2 120 5
2005-06-15 06:15:12 51°13.6 2°56.076 135.1 1.2 120 10.4
2005-06-15 06:15:17 51°13.598 2°56.08 136.1 1.2 120 10.5
2005-06-15 06:15:22 51°13.596 2°56.084 136.5 2.2 129 10.8
2005-06-15 06:15:26 51°13.594 2°56.087 137 2.2 129 10.6
2005-06-15 06:15:32 51°13.592 2°56.093 137.6 2.6 132 10.9
2005-06-15 06:15:37 51°13.589 2°56.097 137.9 2.6 132 10.2
2005-06-15 06:15:42 51°13.586 2°56.101 138.3 2.6 132 10
2005-06-15 06:15:47 51°13.584 2°56.106 138.4 2.6 132 10.3
2005-06-15 06:15:52 51°13.58 2°56.111 138.4 2.9 134 10.5
2005-06-15 06:15:57 51°13.578 2°56.116 138.1 2.9 134 10.6
2005-06-15 06:16:02 51°13.574 2°56.121 138.1 3.2 134 10.7
2005-06-15 06:16:07 51°13.571 2°56.127 138.1 3.2 134 10.7
2005-06-15 06:16:12 51°13.568 2°56.131 138.1 3.2 134 10.7
2005-06-15 06:16:17 51°13.565 2°56.137 137.9 3.2 134 10.7
2005-06-15 06:16:22 51°13.562 2°56.142 137.5 3.3 133 10.7
2005-06-15 06:16:26 51°13.559 2°56.147 137.2 3.3 133 10.8
2005-06-15 06:16:30 51°13.556 2°56.151 135.4 3.3 129 10.8
2005-06-15 06:16:37 51°13.553 2°56.16 131.4 3.3 129 10.9
2005-06-15 06:16:42 51°13.551 2°56.166 126.2 3.3 122 10.9
2005-06-15 06:16:47 51°13.549 2°56.172 120.5 3.3 122 10.9
2005-06-15 06:16:52 51°13.548 2°56.18 114.5 3.3 111 11
2005-06-15 06:16:57 51°13.547 2°56.187 108.4 3.3 111 11
2005-06-15 06:17:01 51°13.547 2°56.193 102.3 3.3 100 11
2005-06-15 06:17:06 51°13.547 2°56.201 96 3.4 87 11.1
2005-06-15 06:17:12 51°13.548 2°56.21 89.9 3.4 87 10.7
2005-06-15 06:17:17 51°13.549 2°56.216 84.9 3.4 87 10.4
2005-06-15 06:17:22 51°13.551 2°56.223 77.7 3.1 73 10.5
2005-06-15 06:17:27 51°13.552 2°56.229 74.7 3.1 73 10.6
2005-06-15 06:17:33 51°13.553 2°56.233 72.2 3.1 73 10.6
2005-06-15 06:17:37 51°13.554 2°56.236 68.7 3.1 73 10.6
2005-06-15 06:17:42 51°13.555 2°56.238 64.3 1.3 62 10.9
2005-06-15 06:17:47 51°13.555 2°56.239 60.2 0.9 61 10.9
2005-06-15 06:17:52 51°13.555 2°56.24 56.3 0.9 61 10.7
2005-06-15 06:17:57 51°13.555 2°56.24 54.7 0.9 61 10.7
2005-06-15 06:18:01 51°13.555 2°56.239 53 0.4 220 10.7
2005-06-15 06:18:06 51°13.554 2°56.238 52.3 0.4 220 10.7
2005-06-15 06:18:12 51°13.552 2°56.236 51.7 1.1 225 10.6
2005-06-15 06:18:18 51°13.551 2°56.233 51.3 1.1 225 -999
2005-06-15 06:18:22 51°13.549 2°56.23 50.8 1.6 227 -999
2005-06-15 06:18:27 51°13.548 2°56.228 50.5 1.7 227 -999
2005-06-15 06:18:33 51°13.546 2°56.225 50.6 1.7 227 -999
2005-06-15 06:18:38 51°13.545 2°56.223 51.1 1.7 227 -999
2005-06-15 06:18:43 51°13.545 2°56.223 51.2 0.6 221 -999
2005-06-15 06:18:48 51°13.545 2°56.223 48.6 0.6 221 -999
2005-06-15 06:18:53 51°13.546 2°56.224 44.2 0.4 42 -999
2005-06-15 06:18:57 51°13.547 2°56.225 39.3 1 30 -999
2005-06-15 06:19:02 51°13.549 2°56.227 33.7 1 30 4.7
2005-06-15 06:19:07 51°13.551 2°56.229 27.9 1.4 34 -999
2005-06-15 06:19:13 51°13.552 2°56.23 23.7 1.1 28 10.6
2005-06-15 06:19:17 51°13.552 2°56.23 21.6 1.1 28 4.7
2005-06-15 06:19:22 51°13.552 2°56.23 18.8 0.1 110 11
2005-06-15 06:19:26 51°13.551 2°56.23 16.4 0.1 110 10.7
2005-06-15 06:19:32 51°13.549 2°56.23 14.8 0.1 110 10.6
2005-06-15 06:19:37 51°13.547 2°56.23 14.2 0.1 110 10.7
2005-06-15 06:19:42 51°13.544 2°56.229 13.9 1.7 187 4.6
2005-06-15 06:19:48 51°13.542 2°56.229 14 1.7 187 -999
2005-06-15 06:19:53 51°13.54 2°56.229 15.1 1.7 187 -999
2005-06-15 06:19:57 51°13.54 2°56.229 15.6 0.4 170 -999
2005-06-15 06:20:02 51°13.541 2°56.229 12.5 0.4 170 -999
2005-06-15 06:20:08 51°13.543 2°56.23 8.2 1.1 5 -999
2005-06-15 06:20:13 51°13.545 2°56.229 -999 0.7 10 -999
2005-06-15 06:20:18 51°13.546 2°56.229 355.6 0.7 10 -999
2005-06-15 06:20:23 51°13.546 2°56.229 352.1 0.7 10 -999
2005-06-15 06:20:28 51°13.544 2°56.229 348.5 0.7 10 -999
2005-06-15 06:20:32 51°13.543 2°56.23 345.9 0.7 10 4.8
2005-06-15 06:20:37 51°13.541 2°56.231 344.4 1.2 153 4.8
2005-06-15 06:20:42 51°13.539 2°56.233 343.4 1.2 153 10.6
2005-06-15 06:20:47 51°13.537 2°56.234 342.8 1.2 153 10.6
2005-06-15 06:20:52 51°13.536 2°56.236 342.8 1.2 153 -999
2005-06-15 06:20:58 51°13.534 2°56.237 343.1 1.2 153 5
2005-06-15 06:21:02 51°13.533 2°56.237 344 1.2 153 4.7
2005-06-15 06:21:08 51°13.534 2°56.237 344.1 0.1 86 -999
2005-06-15 06:21:12 51°13.535 2°56.235 339.5 0.7 341 -999
2005-06-15 06:21:17 51°13.538 2°56.232 334.6 1.4 325 -999
2005-06-15 06:21:22 51°13.541 2°56.228 326.7 1.4 325 4.8
2005-06-15 06:21:27 51°13.544 2°56.222 317.6 3.1 313 5.1
2005-06-15 06:21:32 51°13.547 2°56.214 310 3.6 309 4.9
2005-06-15 06:21:37 51°13.549 2°56.206 300.6 3.9 292 10.4
2005-06-15 06:21:41 51°13.551 2°56.2 294.1 3.9 290 10.6
2005-06-15 06:21:47 51°13.553 2°56.19 289.1 3.9 290 10.8
2005-06-15 06:21:52 51°13.554 2°56.18 286.4 4.3 283 10.9
2005-06-15 06:21:57 51°13.555 2°56.17 284.9 4.3 283 10.9
2005-06-15 06:22:01 51°13.556 2°56.16 284 4.3 283 10.8
2005-06-15 06:22:08 51°13.558 2°56.145 284 4.3 283 10.8
2005-06-15 06:22:12 51°13.56 2°56.134 284.9 5.6 283 10.8
2005-06-15 06:22:17 51°13.562 2°56.122 286.5 5.9 284 10.7
2005-06-15 06:22:22 51°13.565 2°56.108 288.3 5.9 284 10.8
2005-06-15 06:22:26 51°13.567 2°56.099 290.5 5.9 284 11
2005-06-15 06:22:32 51°13.572 2°56.081 293.2 6.6 292 11.1
2005-06-15 06:22:37 51°13.576 2°56.068 296.2 6.6 292 11.2
2005-06-15 06:22:42 51°13.581 2°56.055 299.6 6.6 292 11.3
2005-06-15 06:22:46 51°13.585 2°56.044 302.8 6.8 300 11.3
2005-06-15 06:22:52 51°13.59 2°56.029 305 6.8 300 11.4
2005-06-15 06:22:57 51°13.595 2°56.019 307 6.8 300 11.3
2005-06-15 06:23:01 51°13.6 2°56.009 309 6.7 304 11.3
2005-06-15 06:23:06 51°13.606 2°55.996 309.8 6.7 306 12
2005-06-15 06:23:12 51°13.612 2°55.982 310.6 6.8 307 11.9
2005-06-15 06:23:17 51°13.618 2°55.971 311.3 6.8 307 11.9
2005-06-15 06:23:22 51°13.624 2°55.957 311.3 6.8 307 11.8
2005-06-15 06:23:27 51°13.629 2°55.946 311.3 6.8 307 11.7
2005-06-15 06:23:32 51°13.636 2°55.933 312 7 308 11.5
2005-06-15 06:23:37 51°13.641 2°55.922 312.3 7 308 11.4
2005-06-15 06:23:42 51°13.647 2°55.908 312.6 7 308 11.4
2005-06-15 06:23:46 51°13.652 2°55.898 312.3 7 308 11.4
2005-06-15 06:23:52 51°13.659 2°55.883 312.2 7.1 309 11.3
2005-06-15 06:23:57 51°13.665 2°55.872 312.8 7.1 309 11.3
2005-06-15 06:24:02 51°13.671 2°55.86 312.9 7.1 309 11.2
2005-06-15 06:24:07 51°13.678 2°55.846 312.9 7.1 309 11.2
2005-06-15 06:24:12 51°13.684 2°55.835 312.9 7.2 310 11.2
2005-06-15 06:24:17 51°13.691 2°55.823 313.3 7.2 310 11.4
2005-06-15 06:24:21 51°13.696 2°55.814 314.4 7.2 311 12.1
2005-06-15 06:24:27 51°13.704 2°55.799 315 7.2 311 12.7
2005-06-15 06:24:33 51°13.712 2°55.785 315 7.2 311 12.9
2005-06-15 06:24:37 51°13.717 2°55.775 315 7.2 311 12.9
2005-06-15 06:24:41 51°13.723 2°55.765 315.7 7.3 312 12.9
2005-06-15 06:24:47 51°13.731 2°55.752 317.4 7.3 314 12.9
2005-06-15 06:24:53 51°13.74 2°55.739 318.7 7.3 315 12.6
2005-06-15 06:24:57 51°13.746 2°55.73 319.7 7.3 315 12.1
2005-06-15 06:25:02 51°13.755 2°55.718 321.2 7.3 315 11.9
2005-06-15 06:25:06 51°13.761 2°55.71 322.9 7.3 315 11.5
2005-06-15 06:25:12 51°13.772 2°55.697 324.9 7.7 322 11.5
2005-06-15 06:25:17 51°13.781 2°55.686 326.7 7.7 322 11.5
2005-06-15 06:25:22 51°13.79 2°55.676 328.7 7.7 322 11.5
2005-06-15 06:25:26 51°13.797 2°55.669 330.2 8.3 326 11.3
2005-06-15 06:25:32 51°13.81 2°55.656 331.2 8.3 326 11.4
2005-06-15 06:25:37 51°13.82 2°55.648 333.3 8.3 326 11.4
2005-06-15 06:25:42 51°13.83 2°55.639 335.8 8.8 332 11.6
2005-06-15 06:25:46 51°13.84 2°55.631 337.6 8.8 332 11.7
2005-06-15 06:25:52 51°13.854 2°55.621 338.7 9 335 11.9
2005-06-15 06:25:57 51°13.864 2°55.613 340.1 9 335 11.9
2005-06-15 06:26:02 51°13.877 2°55.605 341.5 9 335 11.8
2005-06-15 06:26:07 51°13.888 2°55.598 341.7 9.3 337 12
2005-06-15 06:26:13 51°13.903 2°55.589 342.4 9.3 337 12.1
2005-06-15 06:26:17 51°13.913 2°55.583 343.1 9.3 337 12.3
2005-06-15 06:26:22 51°13.926 2°55.575 343.3 9.3 337 12.5
2005-06-15 06:26:26 51°13.936 2°55.569 343 9.3 337 12.4
2005-06-15 06:26:32 51°13.951 2°55.562 343.8 9.4 340 12.3
2005-06-15 06:26:37 51°13.964 2°55.554 344.2 9.4 340 12.7
2005-06-15 06:26:42 51°13.975 2°55.548 343.9 9.4 340 12.9
2005-06-15 06:26:46 51°13.986 2°55.541 343.2 9.6 339 12.7
2005-06-15 06:26:52 51°14.001 2°55.531 343 9.6 338 13.2
2005-06-15 06:26:57 51°14.012 2°55.524 342.5 9.6 338 13.1
2005-06-15 06:27:02 51°14.026 2°55.514 341.7 9.7 335 12.8
2005-06-15 06:27:06 51°14.035 2°55.507 341.1 9.6 335 13.2
2005-06-15 06:27:12 51°14.05 2°55.497 341.2 9.6 335 12.5
2005-06-15 06:27:18 51°14.063 2°55.487 341 9.6 335 12.8
2005-06-15 06:27:22 51°14.074 2°55.48 340.6 9.6 336 12.6
2005-06-15 06:27:26 51°14.084 2°55.472 340.3 9.6 336 12.7
2005-06-15 06:27:32 51°14.097 2°55.46 337.5 9.5 330 12.3
2005-06-15 06:27:38 51°14.109 2°55.449 334.8 9.5 330 12.4
2005-06-15 06:27:42 51°14.118 2°55.44 333.4 8.8 329 12.2
2005-06-15 06:27:46 51°14.126 2°55.431 332.7 8.7 329 12.2
2005-06-15 06:27:52 51°14.137 2°55.42 331.8 8.7 329 12.9
2005-06-15 06:27:57 51°14.147 2°55.409 330.6 8.7 329 -999
2005-06-15 06:28:02 51°14.158 2°55.397 329.8 8.6 325 13.1
2005-06-15 06:28:08 51°14.169 2°55.385 329.6 8.6 325 12.9
2005-06-15 06:28:10 51°14.174 2°55.379 328.6 8.9 323 12.8
2005-06-15 06:28:17 51°14.187 2°55.363 327.2 8.9 323 12.7
2005-06-15 06:28:22 51°14.197 2°55.35 326.4 8.9 323 12.3
2005-06-15 06:28:27 51°14.207 2°55.337 325.3 8.9 323 12.7
2005-06-15 06:28:32 51°14.216 2°55.324 324.3 8.9 323 12.4
2005-06-15 06:28:37 51°14.225 2°55.312 323.4 8.9 323 12.7
2005-06-15 06:28:42 51°14.235 2°55.296 322.2 8.9 323 13.1
2005-06-15 06:28:47 51°14.244 2°55.281 321.6 9.3 317 13
2005-06-15 06:28:52 51°14.253 2°55.266 320.4 9.5 315 12.6
2005-06-15 06:28:57 51°14.262 2°55.252 318.9 9.5 315 12.5
2005-06-15 06:29:02 51°14.272 2°55.235 317.7 9.5 315 12.7
2005-06-15 06:29:06 51°14.279 2°55.222 317.1 9.5 315 12.7
2005-06-15 06:29:12 51°14.29 2°55.203 316.6 9.5 315 12.7
2005-06-15 06:29:17 51°14.298 2°55.188 316.5 9.5 315 12.7
2005-06-15 06:29:22 51°14.309 2°55.17 316.4 -999 -999 12.4
2005-06-15 06:29:27 51°14.319 2°55.152 316.3 10.3 312 12.7
2005-06-15 06:29:32 51°14.328 2°55.136 316.4 10.3 312 12.6
2005-06-15 06:29:37 51°14.338 2°55.118 316.5 10.3 312 12.5
2005-06-15 06:29:42 51°14.35 2°55.098 317.1 10.3 312 12.5
2005-06-15 06:29:46 51°14.358 2°55.083 317 10.3 312 12.4
2005-06-15 06:29:52 51°14.37 2°55.063 317.1 11.5 313 12.3
2005-06-15 06:29:57 51°14.382 2°55.044 317.2 11.5 313 12.5
2005-06-15 06:30:02 51°14.394 2°55.024 317.9 11.5 313 12.5
2005-06-15 06:30:07 51°14.405 2°55.008 319 11.7 316 12.6
2005-06-15 06:30:12 51°14.42 2°54.989 320.3 11.9 318 12.5
2005-06-15 06:30:17 51°14.433 2°54.975 322.5 11.9 318 12.5
2005-06-15 06:30:21 51°14.447 2°54.961 325.8 12.8 325 12.4
2005-06-15 06:30:27 51°14.465 2°54.946 329.5 12.9 329 12.2
2005-06-15 06:30:33 51°14.484 2°54.93 331.4 12.9 329 12.1
2005-06-15 06:30:36 51°14.496 2°54.921 332.9 12.9 329 12
2005-06-15 06:30:42 51°14.516 2°54.907 334.5 12.9 329 12
2005-06-15 06:30:47 51°14.533 2°54.894 335.7 12.9 329 11.9
2005-06-15 06:30:53 51°14.551 2°54.879 336 12.9 329 12
2005-06-15 06:30:57 51°14.564 2°54.868 334 -999 -999 11.9
2005-06-15 06:31:02 51°14.582 2°54.851 332.4 13.5 330 11.8
2005-06-15 06:31:07 51°14.599 2°54.836 331.3 13.5 330 11.7
2005-06-15 06:31:13 51°14.616 2°54.819 330.7 13.5 330 11.7
2005-06-15 06:31:17 51°14.631 2°54.806 330.2 13.5 329 11.7
2005-06-15 06:31:21 51°14.642 2°54.795 329.8 13.5 328 11.6
2005-06-15 06:31:26 51°14.658 2°54.779 329.3 13.5 328 11.7
2005-06-15 06:31:33 51°14.681 2°54.758 329.3 13.6 330 11.6
2005-06-15 06:31:37 51°14.694 2°54.746 329.9 13.7 331 11.6
2005-06-15 06:31:42 51°14.712 2°54.73 330.5 13.7 331 11.6
2005-06-15 06:31:47 51°14.729 2°54.715 330.9 13.7 331 11.6
2005-06-15 06:31:52 51°14.744 2°54.702 330.8 13.7 331 11.7
2005-06-15 06:31:57 51°14.76 2°54.686 330.1 13.7 330 11.5
2005-06-15 06:32:02 51°14.778 2°54.67 329.8 13.7 330 11.4
2005-06-15 06:32:06 51°14.791 2°54.658 329.7 13.7 330 11.4
2005-06-15 06:32:12 51°14.811 2°54.64 329.8 13.7 330 11.4
2005-06-15 06:32:17 51°14.826 2°54.626 329.8 13.7 330 11.4
2005-06-15 06:32:22 51°14.844 2°54.61 329.8 13.6 330 11.4
2005-06-15 06:32:26 51°14.857 2°54.598 329.8 13.6 330 11.3
2005-06-15 06:32:32 51°14.876 2°54.579 329.2 13.6 330 11.3
2005-06-15 06:32:37 51°14.891 2°54.565 328.7 13.6 329 11.2
2005-06-15 06:32:42 51°14.909 2°54.548 328.3 13.6 329 11.2
2005-06-15 06:32:46 51°14.92 2°54.537 328 13.6 329 11.2
2005-06-15 06:32:52 51°14.941 2°54.516 327.8 13.5 328 11.1
2005-06-15 06:32:57 51°14.955 2°54.502 327.8 13.5 328 11
2005-06-15 06:33:02 51°14.973 2°54.485 327.8 13.6 328 10.9
2005-06-15 06:33:06 51°14.984 2°54.473 327.6 13.6 328 10.8
2005-06-15 06:33:12 51°15.004 2°54.452 327.3 13.6 327 10.7
2005-06-15 06:33:17 51°15.018 2°54.437 327.1 13.6 327 10.7
2005-06-15 06:33:22 51°15.035 2°54.419 327 13.5 326 10.6
2005-06-15 06:33:27 51°15.051 2°54.402 327 13.5 326 10.5
2005-06-15 06:33:33 51°15.068 2°54.384 327.1 13.5 326 10.5
2005-06-15 06:33:37 51°15.081 2°54.371 327.7 13.6 327 10.6
2005-06-15 06:33:42 51°15.097 2°54.355 328 13.6 327 10.6
2005-06-15 06:33:47 51°15.113 2°54.338 328 13.6 327 10.7
2005-06-15 06:33:52 51°15.13 2°54.32 328 13.6 327 10.7
2005-06-15 06:33:57 51°15.145 2°54.305 327.9 13.7 327 10.8
2005-06-15 06:34:02 51°15.163 2°54.288 328.2 13.7 328 10.9
2005-06-15 06:34:06 51°15.176 2°54.275 328.5 13.7 328 10.9
2005-06-15 06:34:13 51°15.197 2°54.254 328.7 13.7 328 11
2005-06-15 06:34:17 51°15.21 2°54.241 328.9 13.7 328 11.1
2005-06-15 06:34:22 51°15.228 2°54.223 329.1 13.8 328 11
2005-06-15 06:34:27 51°15.243 2°54.209 329.2 13.8 328 11.1
2005-06-15 06:34:32 51°15.261 2°54.192 329.2 13.9 328 11.2
2005-06-15 06:34:37 51°15.276 2°54.177 329.2 13.9 328 11.2
2005-06-15 06:34:42 51°15.292 2°54.161 329 13.9 328 11.3
2005-06-15 06:34:46 51°15.307 2°54.146 328.7 13.9 328 11.3
2005-06-15 06:34:52 51°15.326 2°54.126 328.7 13.9 328 11.4
2005-06-15 06:34:57 51°15.341 2°54.112 328.6 13.9 328 11.5
2005-06-15 06:35:02 51°15.359 2°54.094 328.7 13.9 328 11.5
2005-06-15 06:35:07 51°15.376 2°54.078 328.7 13.9 328 11.6
2005-06-15 06:35:12 51°15.392 2°54.062 328.9 13.9 329 11.7
2005-06-15 06:35:17 51°15.407 2°54.048 329 13.9 329 11.7
2005-06-15 06:35:22 51°15.424 2°54.032 328.9 14 329 11.8
2005-06-15 06:35:26 51°15.438 2°54.018 328.8 13.9 329 11.9
2005-06-15 06:35:32 51°15.459 2°53.999 328.7 13.9 329 12
2005-06-15 06:35:37 51°15.474 2°53.986 329.6 13.9 329 12.1
2005-06-15 06:35:42 51°15.493 2°53.97 330.8 14 332 12
2005-06-15 06:35:46 51°15.507 2°53.96 331.9 14 333 12.1
2005-06-15 06:35:53 51°15.53 2°53.942 332.9 14 333 12.3
2005-06-15 06:35:57 51°15.546 2°53.93 333.5 14 334 12.3
2005-06-15 06:36:02 51°15.563 2°53.916 333.8 14 334 12.3
2005-06-15 06:36:06 51°15.577 2°53.906 334.1 14 334 12.4
2005-06-15 06:36:12 51°15.598 2°53.889 334 13.9 334 12.5
2005-06-15 06:36:18 51°15.617 2°53.874 333.7 13.9 334 12.5
2005-06-15 06:36:21 51°15.629 2°53.865 333.7 13.9 334 12.6
2005-06-15 06:36:26 51°15.646 2°53.852 333.8 13.9 334 12.7
2005-06-15 06:36:33 51°15.669 2°53.834 333.9 13.9 334 12.7
2005-06-15 06:36:37 51°15.685 2°53.822 334.1 13.9 334 12.7
2005-06-15 06:36:42 51°15.702 2°53.809 334.1 13.8 335 12.8
2005-06-15 06:36:47 51°15.717 2°53.797 334.1 13.8 335 12.8
2005-06-15 06:36:52 51°15.736 2°53.782 333.9 13.8 334 12.9
2005-06-15 06:36:57 51°15.752 2°53.77 333.7 13.8 334 12.9
2005-06-15 06:37:02 51°15.771 2°53.755 333.5 13.8 334 13
2005-06-15 06:37:06 51°15.785 2°53.745 333.5 13.8 334 13
2005-06-15 06:37:12 51°15.805 2°53.729 333.5 13.8 334 13.1
2005-06-15 06:37:17 51°15.823 2°53.716 333.8 13.8 335 13.1
2005-06-15 06:37:22 51°15.84 2°53.703 334 13.8 335 13.1
2005-06-15 06:37:26 51°15.852 2°53.694 334.5 13.8 335 13.2
2005-06-15 06:37:33 51°15.876 2°53.676 334.6 13.8 335 13.2
2005-06-15 06:37:37 51°15.89 2°53.666 334.5 13.8 335 13.2
2005-06-15 06:37:42 51°15.909 2°53.652 334.4 13.8 335 13.2
2005-06-15 06:37:48 51°15.928 2°53.637 334.2 13.8 335 13.3
2005-06-15 06:37:52 51°15.944 2°53.625 334.2 13.8 335 13.3
2005-06-15 06:37:57 51°15.959 2°53.613 334.1 13.8 335 13.4
2005-06-15 06:38:02 51°15.978 2°53.599 334.1 13.8 335 13.3
2005-06-15 06:38:07 51°15.995 2°53.586 334.1 13.7 334 13.4
2005-06-15 06:38:12 51°16.012 2°53.573 334.2 13.7 335 13.4
2005-06-15 06:38:17 51°16.029 2°53.56 334.5 13.7 335 13.5
2005-06-15 06:38:22 51°16.047 2°53.547 334.5 13.7 335 13.5
2005-06-15 06:38:26 51°16.061 2°53.536 334.2 13.8 335 13.5
2005-06-15 06:38:33 51°16.083 2°53.52 334.1 13.8 335 13.6
2005-06-15 06:38:37 51°16.098 2°53.508 334.1 13.8 335 13.6
2005-06-15 06:38:42 51°16.116 2°53.495 334.2 13.8 335 13.6
2005-06-15 06:38:46 51°16.129 2°53.485 334.1 13.8 335 13.7
2005-06-15 06:38:52 51°16.15 2°53.469 333.9 13.7 335 13.7
2005-06-15 06:38:57 51°16.165 2°53.457 333.8 13.8 335 13.7
2005-06-15 06:39:02 51°16.185 2°53.443 334 13.8 335 13.7
2005-06-15 06:39:07 51°16.2 2°53.432 334.3 13.8 335 13.8
2005-06-15 06:39:12 51°16.219 2°53.418 334.5 13.8 335 13.7
2005-06-15 06:39:17 51°16.235 2°53.406 334.5 13.8 335 13.7
2005-06-15 06:39:22 51°16.254 2°53.392 334.2 13.7 335 13.7
2005-06-15 06:39:27 51°16.269 2°53.381 333.9 13.7 335 13.8
2005-06-15 06:39:32 51°16.289 2°53.367 334 13.7 335 13.9
2005-06-15 06:39:37 51°16.304 2°53.356 334.2 13.7 335 13.9
2005-06-15 06:39:42 51°16.323 2°53.341 334.3 13.7 335 13.9
2005-06-15 06:39:47 51°16.34 2°53.328 334.4 13.7 335 13.9
2005-06-15 06:39:52 51°16.357 2°53.316 334.2 13.7 335 14
2005-06-15 06:39:57 51°16.373 2°53.304 334.2 13.7 335 14
2005-06-15 06:40:02 51°16.392 2°53.29 333.9 13.7 335 14
2005-06-15 06:40:07 51°16.407 2°53.278 333.8 13.7 334 14
2005-06-15 06:40:13 51°16.428 2°53.262 333.7 13.7 334 14
2005-06-15 06:40:17 51°16.442 2°53.252 333.7 13.7 334 14.1
2005-06-15 06:40:22 51°16.461 2°53.237 333.2 13.7 334 14
2005-06-15 06:40:27 51°16.476 2°53.225 332.8 13.8 334 14
2005-06-15 06:40:33 51°16.497 2°53.209 332.6 13.8 334 13.9
2005-06-15 06:40:37 51°16.51 2°53.198 332.4 13.8 334 13.9
2005-06-15 06:40:41 51°16.523 2°53.187 332.2 13.7 333 13.9
2005-06-15 06:40:46 51°16.54 2°53.173 331.9 13.7 333 13.9
2005-06-15 06:40:52 51°16.562 2°53.155 331.8 13.7 333 13.9
2005-06-15 06:40:57 51°16.578 2°53.142 331.8 13.7 333 13.8
2005-06-15 06:41:02 51°16.596 2°53.127 331.6 13.7 333 13.8
2005-06-15 06:41:08 51°16.615 2°53.112 331.7 13.7 333 13.7
2005-06-15 06:41:12 51°16.63 2°53.1 332 13.8 334 13.6
2005-06-15 06:41:17 51°16.646 2°53.088 332.4 13.8 334 13.6
2005-06-15 06:41:22 51°16.663 2°53.074 332.4 13.8 333 13.5
2005-06-15 06:41:26 51°16.678 2°53.062 332.1 13.8 333 13.5
2005-06-15 06:41:32 51°16.698 2°53.045 331.6 13.7 333 13.3
2005-06-15 06:41:37 51°16.713 2°53.033 331.6 13.7 333 13.1
2005-06-15 06:41:42 51°16.73 2°53.019 332 13.7 334 13
2005-06-15 06:41:46 51°16.745 2°53.007 332.4 13.7 334 13
2005-06-15 06:41:52 51°16.764 2°52.992 332.5 13.7 333 12.7
2005-06-15 06:41:57 51°16.781 2°52.978 332.5 13.7 333 12.5
2005-06-15 06:42:02 51°16.799 2°52.962 332.3 13.7 333 12.1
2005-06-15 06:42:06 51°16.811 2°52.953 331.9 13.7 332 11.6
2005-06-15 06:42:12 51°16.833 2°52.934 331.8 13.6 333 11.2
2005-06-15 06:42:17 51°16.848 2°52.922 332 13.6 333 10.9
2005-06-15 06:42:22 51°16.866 2°52.906 331.8 13.6 333 10.8
2005-06-15 06:42:26 51°16.878 2°52.896 331.9 13.6 332 10.9
2005-06-15 06:42:32 51°16.899 2°52.877 332 13.6 332 11.1
2005-06-15 06:42:37 51°16.914 2°52.865 332.2 13.6 332 11.2
2005-06-15 06:42:42 51°16.933 2°52.849 332.5 13.6 332 11.3
2005-06-15 06:42:46 51°16.946 2°52.837 332.6 13.6 332 11.4
2005-06-15 06:42:52 51°16.967 2°52.82 332.9 13.6 332 11.5
2005-06-15 06:42:57 51°16.982 2°52.807 332.9 13.9 332 11.6
2005-06-15 06:43:02 51°17 2°52.791 333 13.9 332 11.6
2005-06-15 06:43:07 51°17.015 2°52.778 333 13.9 332 11.7
2005-06-15 06:43:12 51°17.034 2°52.762 332.5 13.8 332 11.8
2005-06-15 06:43:17 51°17.049 2°52.749 332.5 13.8 332 12
2005-06-15 06:43:22 51°17.068 2°52.733 332.5 13.9 332 12.2
2005-06-15 06:43:26 51°17.082 2°52.722 332.4 13.9 332 12.2
2005-06-15 06:43:32 51°17.1 2°52.706 332.4 13.9 332 12
2005-06-15 06:43:37 51°17.118 2°52.692 332.7 13.9 332 11.9
2005-06-15 06:43:41 51°17.132 2°52.682 334.1 13.9 335 11.5
2005-06-15 06:43:47 51°17.154 2°52.665 335.1 13.9 335 11.6
2005-06-15 06:43:52 51°17.171 2°52.652 336.1 13.9 337 11.7
2005-06-15 06:43:57 51°17.187 2°52.64 337 13.9 337 11.5
2005-06-15 06:44:02 51°17.205 2°52.626 337.4 13.9 336 11.6
2005-06-15 06:44:07 51°17.221 2°52.614 337.9 13.9 336 11.7
2005-06-15 06:44:12 51°17.241 2°52.601 338.1 13.9 336 11.9
2005-06-15 06:44:17 51°17.257 2°52.591 337.7 13.9 336 11.9
2005-06-15 06:44:22 51°17.277 2°52.578 338 13.9 338 11.9
2005-06-15 06:44:26 51°17.292 2°52.571 338.7 14 338 12
2005-06-15 06:44:32 51°17.315 2°52.561 342.1 14.1 342 12
2005-06-15 06:44:37 51°17.331 2°52.555 345.2 14.1 342 12.2
2005-06-15 06:44:42 51°17.352 2°52.549 349.1 14 348 12.1
2005-06-15 06:44:47 51°17.37 2°52.545 352.1 14 348 12.3
2005-06-15 06:44:52 51°17.391 2°52.541 354.1 14.1 352 12.2
2005-06-15 06:44:57 51°17.409 2°52.538 355.2 14.1 352 12.1
2005-06-15 06:45:02 51°17.431 2°52.535 356.1 14.1 354 12.3
2005-06-15 06:45:07 51°17.448 2°52.533 356.3 14.1 354 12.2
2005-06-15 06:45:13 51°17.472 2°52.529 357 14.1 354 12.2
2005-06-15 06:45:18 51°17.491 2°52.527 357.8 14.1 354 12.2
2005-06-15 06:45:22 51°17.509 2°52.525 357.8 14.1 354 12.2
2005-06-15 06:45:27 51°17.529 2°52.524 358.7 14.1 354 12.5
2005-06-15 06:45:33 51°17.551 2°52.524 359.7 14.2 358 12.2
2005-06-15 06:45:37 51°17.567 2°52.523 0.9 14.2 358 12.4
2005-06-15 06:45:42 51°17.586 2°52.522 1.1 14.2 359 12.4
2005-06-15 06:45:46 51°17.604 2°52.522 1.5 14.2 359 12.3
2005-06-15 06:45:50 51°17.62 2°52.521 1.5 14.2 359 12.3
2005-06-15 06:45:57 51°17.648 2°52.521 1.4 14.2 359 12.2
2005-06-15 06:46:02 51°17.665 2°52.52 1.4 14.2 359 12.2
2005-06-15 06:46:06 51°17.683 2°52.519 1.4 14.2 359 12.4
2005-06-15 06:46:12 51°17.704 2°52.517 1.1 14.2 358 12.2
2005-06-15 06:46:17 51°17.724 2°52.516 0.7 14.2 358 12.3
2005-06-15 06:46:22 51°17.746 2°52.515 0.7 14.2 358 12.4
2005-06-15 06:46:28 51°17.767 2°52.514 0.7 14.2 358 12.4
2005-06-15 06:46:32 51°17.785 2°52.514 0.8 14.2 358 12.2
2005-06-15 06:46:37 51°17.803 2°52.512 0.7 14.2 358 12.3
2005-06-15 06:46:42 51°17.825 2°52.512 0.7 14.2 358 12.3
2005-06-15 06:46:46 51°17.84 2°52.511 0.8 14.2 359 12.5
2005-06-15 06:46:52 51°17.864 2°52.514 2.5 14.2 359 12.4
2005-06-15 06:46:57 51°17.883 2°52.517 6.2 14.1 5 12.4
2005-06-15 06:47:02 51°17.902 2°52.522 8.6 14.2 9 12.5
2005-06-15 06:47:08 51°17.924 2°52.528 11.1 14.2 9 12.5
2005-06-15 06:47:12 51°17.941 2°52.533 12.8 14.2 11 12.4
2005-06-15 06:47:17 51°17.958 2°52.539 13.9 14.2 11 12.5
2005-06-15 06:47:22 51°17.978 2°52.545 14.6 14.2 12 12.5
2005-06-15 06:47:27 51°17.997 2°52.555 15.4 14.2 12 12.5
2005-06-15 06:47:32 51°18.018 2°52.566 19 14.3 16 12.6
2005-06-15 06:47:37 51°18.034 2°52.575 21.1 14.3 16 12.6
2005-06-15 06:47:42 51°18.054 2°52.586 23.1 14.3 16 12.6
2005-06-15 06:47:46 51°18.069 2°52.596 23.7 14.3 16 12.7
2005-06-15 06:47:52 51°18.091 2°52.609 25.1 14.3 16 12.7
2005-06-15 06:47:57 51°18.108 2°52.62 25.4 14.3 16 12.7
2005-06-15 06:48:02 51°18.128 2°52.634 25.9 14.3 23 12.8
2005-06-15 06:48:06 51°18.142 2°52.644 26.5 14.3 23 12.7
2005-06-15 06:48:12 51°18.163 2°52.662 28.7 14.3 24 12.7
2005-06-15 06:48:17 51°18.179 2°52.676 30.8 14.3 24 12.8
2005-06-15 06:48:22 51°18.197 2°52.695 34.8 14.4 34 12.8
2005-06-15 06:48:27 51°18.212 2°52.712 37.7 14.3 36 12.9
2005-06-15 06:48:32 51°18.229 2°52.734 39.6 14.3 36 12.9
2005-06-15 06:48:37 51°18.242 2°52.751 41.9 14.3 36 12.9
2005-06-15 06:48:42 51°18.259 2°52.773 43.2 14.3 36 13
2005-06-15 06:48:47 51°18.275 2°52.793 43.2 14.3 36 13
2005-06-15 06:48:52 51°18.29 2°52.812 44.1 14.3 36 13
2005-06-15 06:48:57 51°18.303 2°52.831 44.2 14.2 40 13.1
2005-06-15 06:49:02 51°18.32 2°52.854 44.8 14.2 40 13
2005-06-15 06:49:06 51°18.332 2°52.87 45.1 14.2 40 13
2005-06-15 06:49:13 51°18.351 2°52.899 45.5 14.3 40 13.1
2005-06-15 06:49:17 51°18.362 2°52.916 47.8 14.3 40 13
2005-06-15 06:49:21 51°18.373 2°52.935 49.4 14.2 46 13.2
2005-06-15 06:49:26 51°18.388 2°52.96 50.7 14.2 46 13.2
2005-06-15 06:49:32 51°18.405 2°52.988 51.2 14.2 47 13.1
2005-06-15 06:49:37 51°18.417 2°53.008 51.5 14.3 47 13.1
2005-06-15 06:49:42 51°18.432 2°53.034 51.8 14.2 47 13.1
2005-06-15 06:49:47 51°18.446 2°53.057 51.7 14.2 47 13.3
2005-06-15 06:49:52 51°18.459 2°53.08 51.5 14.2 46 13.2
2005-06-15 06:49:57 51°18.472 2°53.1 51.2 14.2 46 13.2
2005-06-15 06:50:02 51°18.487 2°53.126 51.3 14.2 46 13.2
2005-06-15 06:50:06 51°18.498 2°53.144 51.3 14.3 46 13.2
2005-06-15 06:50:12 51°18.515 2°53.172 50.6 14.3 46 13.3
2005-06-15 06:50:17 51°18.527 2°53.194 51.4 14.3 46 13.3
2005-06-15 06:50:22 51°18.541 2°53.22 53.7 14.3 46 13.2
2005-06-15 06:50:26 51°18.55 2°53.24 55.8 14.3 51 13.2
2005-06-15 06:50:32 51°18.565 2°53.271 57.5 14.3 51 13.3
2005-06-15 06:50:37 51°18.575 2°53.294 58.7 14.3 54 13.4
2005-06-15 06:50:42 51°18.588 2°53.322 58.8 14.4 53 13.3
2005-06-15 06:50:47 51°18.599 2°53.346 59.5 14.4 53 13.3
2005-06-15 06:50:52 51°18.611 2°53.374 59.7 14.4 53 13.3
2005-06-15 06:50:57 51°18.62 2°53.398 60.9 14.4 53 13.3
2005-06-15 06:51:02 51°18.631 2°53.428 62.9 14.3 59 13.4
2005-06-15 06:51:07 51°18.64 2°53.456 65.3 14.3 59 13.3
2005-06-15 06:51:13 51°18.65 2°53.487 67.5 14.3 59 13.3
2005-06-15 06:51:17 51°18.657 2°53.51 69.2 14.2 64 13.3
2005-06-15 06:51:22 51°18.666 2°53.541 70.3 14.2 64 13.3
2005-06-15 06:51:27 51°18.673 2°53.567 71.2 14.2 64 13.3
2005-06-15 06:51:33 51°18.682 2°53.602 71.6 14.2 64 13.3
2005-06-15 06:51:37 51°18.69 2°53.624 71.6 14.2 64 13.3
2005-06-15 06:51:42 51°18.698 2°53.656 71.7 14.3 66 13.3
2005-06-15 06:51:46 51°18.705 2°53.68 71.8 14.3 66 13.4
2005-06-15 06:51:53 51°18.714 2°53.718 72.5 14.3 66 13.3
2005-06-15 06:51:57 51°18.72 2°53.741 73.1 14.3 66 13.4
2005-06-15 06:52:02 51°18.728 2°53.773 74.2 14.2 69 13.3
2005-06-15 06:52:07 51°18.734 2°53.8 75 14.2 69 13.4
2005-06-15 06:52:12 51°18.742 2°53.832 75.2 14.2 69 13.3
2005-06-15 06:52:17 51°18.748 2°53.859 75.3 14.2 69 13.4
2005-06-15 06:52:22 51°18.756 2°53.891 75.3 14.3 69 13.4
2005-06-15 06:52:26 51°18.762 2°53.915 75.3 14.3 69 13.3
2005-06-15 06:52:32 51°18.769 2°53.947 74.7 14.3 68 13.3
2005-06-15 06:52:37 51°18.777 2°53.976 74.3 14.3 68 13.3
2005-06-15 06:52:42 51°18.785 2°54.009 74 14.3 68 13.3
2005-06-15 06:52:46 51°18.791 2°54.032 74.1 14.3 68 13.3
2005-06-15 06:52:52 51°18.8 2°54.067 74.5 14.3 69 13.3
2005-06-15 06:52:57 51°18.806 2°54.094 74.6 14.2 70 13.3
2005-06-15 06:53:03 51°18.815 2°54.128 74.9 14.2 70 13.3
2005-06-15 06:53:07 51°18.82 2°54.152 74.7 14.2 70 13.3
2005-06-15 06:53:12 51°18.828 2°54.184 75.2 14.2 70 13.3
2005-06-15 06:53:17 51°18.834 2°54.21 75.4 14.2 70 13.4
2005-06-15 06:53:22 51°18.841 2°54.243 75.8 14.2 70 13.3
2005-06-15 06:53:27 51°18.847 2°54.27 76.1 14.2 70 13.3
2005-06-15 06:53:33 51°18.855 2°54.305 76 14.2 70 13.3
2005-06-15 06:53:37 51°18.861 2°54.329 75.6 14.1 69 13.3
2005-06-15 06:53:42 51°18.868 2°54.361 75.3 14.1 69 13.3
2005-06-15 06:53:47 51°18.874 2°54.387 75.6 14.1 69 13.3
2005-06-15 06:53:53 51°18.883 2°54.422 75.7 14.1 69 13.3
2005-06-15 06:53:57 51°18.888 2°54.446 75.6 14.2 69 13.3
2005-06-15 06:54:02 51°18.896 2°54.479 75.5 14.2 69 13.3
2005-06-15 06:54:07 51°18.902 2°54.508 75.8 14.2 69 13.3
2005-06-15 06:54:12 51°18.909 2°54.537 75.8 14.2 69 13.3
2005-06-15 06:54:17 51°18.915 2°54.564 75.7 14.3 69 13.3
2005-06-15 06:54:22 51°18.923 2°54.593 75.4 14.3 69 13.2
2005-06-15 06:54:26 51°18.929 2°54.62 75.3 14.3 69 13.3
2005-06-15 06:54:32 51°18.937 2°54.655 75.3 14.3 69 13.3
2005-06-15 06:54:37 51°18.944 2°54.682 75.5 14.3 69 13.2
2005-06-15 06:54:41 51°18.949 2°54.706 75.3 14.3 69 13.2
2005-06-15 06:54:46 51°18.957 2°54.738 75.1 14.3 69 13.3
2005-06-15 06:54:52 51°18.965 2°54.771 75.1 14.4 70 13.3
2005-06-15 06:54:57 51°18.972 2°54.801 75.4 14.4 70 13.3
2005-06-15 06:55:02 51°18.979 2°54.833 75.7 14.4 70 13.4
2005-06-15 06:55:06 51°18.985 2°54.857 76.1 14.4 70 13.2
2005-06-15 06:55:12 51°18.994 2°54.893 75.7 14.4 69 13.2
2005-06-15 06:55:17 51°19.001 2°54.923 75.1 14.4 69 13.2
2005-06-15 06:55:22 51°19.008 2°54.952 75.1 14.3 69 13.2
2005-06-15 06:55:27 51°19.014 2°54.978 75.1 14.3 69 13.2
2005-06-15 06:55:33 51°19.023 2°55.014 75 14.3 69 13.2
2005-06-15 06:55:37 51°19.029 2°55.038 74.6 14.3 69 13.2
2005-06-15 06:55:42 51°19.037 2°55.07 74.7 14.3 69 13.2
2005-06-15 06:55:46 51°19.043 2°55.094 75.1 14.3 68 13.2
2005-06-15 06:55:53 51°19.053 2°55.132 75.2 14.3 68 13.2
2005-06-15 06:55:56 51°19.058 2°55.153 75.1 14.4 68 13.1
2005-06-15 06:56:01 51°19.064 2°55.18 74.8 14.3 69 13.2
2005-06-15 06:56:06 51°19.071 2°55.209 74.9 14.3 69 13.2
2005-06-15 06:56:12 51°19.08 2°55.248 75.2 14.3 70 13.2
2005-06-15 06:56:17 51°19.087 2°55.278 75.6 14.3 70 13.2
2005-06-15 06:56:22 51°19.095 2°55.307 75.5 14.3 70 13.2
2005-06-15 06:56:26 51°19.101 2°55.331 75.4 14.3 69 13.2
2005-06-15 06:56:32 51°19.11 2°55.366 74.4 14.3 69 13.1
2005-06-15 06:56:37 51°19.116 2°55.392 74.3 14.3 69 13.1
2005-06-15 06:56:41 51°19.122 2°55.416 74.1 14.3 68 13.1
2005-06-15 06:56:47 51°19.131 2°55.451 74.4 14.3 69 13.1
2005-06-15 06:56:52 51°19.139 2°55.483 74.7 14.3 69 13.1
2005-06-15 06:56:57 51°19.146 2°55.513 75 14.2 69 13
2005-06-15 06:57:02 51°19.153 2°55.54 75.4 14.2 69 13
2005-06-15 06:57:07 51°19.16 2°55.569 75 14.2 69 13
2005-06-15 06:57:12 51°19.168 2°55.602 74.9 14.4 68 12.9
2005-06-15 06:57:17 51°19.175 2°55.629 75 14.4 68 12.9
2005-06-15 06:57:21 51°19.181 2°55.652 75.1 14.5 69 13
2005-06-15 06:57:27 51°19.19 2°55.691 75.3 14.5 69 13
2005-06-15 06:57:32 51°19.197 2°55.717 74.8 14.5 68 13
2005-06-15 06:57:37 51°19.205 2°55.747 74.3 14.5 68 12.9
2005-06-15 06:57:42 51°19.212 2°55.777 74.2 14.5 68 12.8
2005-06-15 06:57:47 51°19.22 2°55.806 74.4 14.5 68 12.9
2005-06-15 06:57:52 51°19.228 2°55.839 74.8 14.4 68 12.8
2005-06-15 06:57:57 51°19.235 2°55.866 74.9 14.5 68 12.9
2005-06-15 06:58:02 51°19.243 2°55.899 74.7 14.5 68 12.9
2005-06-15 06:58:08 51°19.251 2°55.931 75.4 14.5 69 12.9
2005-06-15 06:58:12 51°19.257 2°55.955 75.6 14.5 69 12.9
2005-06-15 06:58:17 51°19.264 2°55.985 75.5 14.5 69 12.8
2005-06-15 06:58:22 51°19.272 2°56.018 75.1 14.5 69 12.9
2005-06-15 06:58:27 51°19.28 2°56.047 74.7 14.4 68 12.8
2005-06-15 06:58:32 51°19.287 2°56.074 74.7 14.4 67 12.8
2005-06-15 06:58:37 51°19.295 2°56.103 74.2 14.4 68 12.8
2005-06-15 06:58:41 51°19.302 2°56.13 74 14.4 67 12.8
2005-06-15 06:58:46 51°19.31 2°56.159 73.7 14.5 67 12.8
2005-06-15 06:58:52 51°19.319 2°56.194 73.3 14.4 67 12.7
2005-06-15 06:58:57 51°19.326 2°56.221 73.7 14.4 67 12.7
2005-06-15 06:59:02 51°19.334 2°56.253 74 14.4 67 12.7
2005-06-15 06:59:07 51°19.341 2°56.279 73.9 14.4 67 12.7
2005-06-15 06:59:13 51°19.351 2°56.315 73.6 14.4 67 12.7
2005-06-15 06:59:17 51°19.358 2°56.342 74 14.4 67 12.7
2005-06-15 06:59:22 51°19.365 2°56.371 74.3 14.4 68 12.7
2005-06-15 06:59:26 51°19.371 2°56.394 74.6 14.4 68 12.7
2005-06-15 06:59:32 51°19.38 2°56.43 75 14.3 70 12.7
2005-06-15 06:59:37 51°19.386 2°56.457 75.2 14.4 68 12.6
2005-06-15 06:59:42 51°19.394 2°56.489 75.3 14.3 69 12.6
2005-06-15 06:59:47 51°19.401 2°56.516 75.5 14.3 69 12.7
2005-06-15 06:59:52 51°19.409 2°56.549 75.7 14.3 69 12.7
2005-06-15 06:59:57 51°19.416 2°56.579 75.7 14.4 69 12.6
2005-06-15 07:00:02 51°19.423 2°56.605 75.6 14.4 69 12.6
2005-06-15 07:00:06 51°19.429 2°56.631 75.3 14.4 69 12.6
2005-06-15 07:00:12 51°19.438 2°56.667 75.2 14.3 68 12.6
2005-06-15 07:00:17 51°19.444 2°56.693 75.1 14.3 69 12.6
2005-06-15 07:00:22 51°19.452 2°56.726 75.2 14.4 68 12.5
2005-06-15 07:00:27 51°19.459 2°56.753 75.4 14.4 69 12.5
2005-06-15 07:00:32 51°19.467 2°56.785 75.5 14.4 69 12.5
2005-06-15 07:00:37 51°19.475 2°56.815 75.3 14.4 69 12.5
2005-06-15 07:00:42 51°19.482 2°56.844 75.3 14.4 69 12.6
2005-06-15 07:00:46 51°19.488 2°56.868 74.8 14.3 67 12.6
2005-06-15 07:00:52 51°19.497 2°56.903 74.2 14.3 67 12.5
2005-06-15 07:00:57 51°19.504 2°56.929 74.1 14.4 68 12.6
2005-06-15 07:01:02 51°19.512 2°56.961 73.7 14.4 68 12.5
2005-06-15 07:01:06 51°19.519 2°56.985 73.7 14.3 67 12.5
2005-06-15 07:01:12 51°19.528 2°57.02 73.8 14.3 67 12.5
2005-06-15 07:01:17 51°19.534 2°57.046 74.4 14.4 68 12.5
2005-06-15 07:01:22 51°19.543 2°57.079 74.4 14.4 67 12.5
2005-06-15 07:01:27 51°19.55 2°57.108 74.2 14.4 67 12.5
2005-06-15 07:01:32 51°19.558 2°57.137 74.5 14.3 67 12.5
2005-06-15 07:01:37 51°19.564 2°57.164 74.7 14.3 67 12.5
2005-06-15 07:01:42 51°19.572 2°57.196 75.1 14.3 67 12.5
2005-06-15 07:01:47 51°19.58 2°57.226 74.8 14.3 67 12.5
2005-06-15 07:01:52 51°19.587 2°57.255 74.9 14.3 68 12.4
2005-06-15 07:01:57 51°19.594 2°57.285 75.3 14.3 69 12.4
2005-06-15 07:02:02 51°19.601 2°57.314 75.2 14.3 68 12.4
2005-06-15 07:02:07 51°19.608 2°57.34 74.7 14.3 68 12.4
2005-06-15 07:02:12 51°19.616 2°57.37 74.4 14.3 67 12.4
2005-06-15 07:02:17 51°19.623 2°57.399 73.9 14.3 67 12.4
2005-06-15 07:02:22 51°19.632 2°57.431 73.9 14.2 68 12.4
2005-06-15 07:02:26 51°19.638 2°57.454 74.4 14.2 68 12.4
2005-06-15 07:02:32 51°19.646 2°57.49 74.6 14.2 69 12.4
2005-06-15 07:02:37 51°19.653 2°57.516 74.7 14.2 69 12.4
2005-06-15 07:02:42 51°19.66 2°57.545 74.7 14.2 68 12.3
2005-06-15 07:02:47 51°19.668 2°57.577 75 14.2 69 12.4
2005-06-15 07:02:52 51°19.676 2°57.606 74.4 14.2 69 12.3
2005-06-15 07:02:57 51°19.683 2°57.633 74.1 14.2 68 12.3
2005-06-15 07:03:02 51°19.691 2°57.665 73.9 14.2 68 12.3
2005-06-15 07:03:06 51°19.697 2°57.688 74 14.2 68 12.3
2005-06-15 07:03:12 51°19.706 2°57.723 74.3 14.2 68 12.3
2005-06-15 07:03:17 51°19.713 2°57.753 74.2 14.3 68 12.3
2005-06-15 07:03:21 51°19.719 2°57.773 74.5 14.3 68 12.3
2005-06-15 07:03:27 51°19.727 2°57.808 74.6 14.2 68 12.3
2005-06-15 07:03:33 51°19.736 2°57.843 74.8 14.2 68 12.3
2005-06-15 07:03:37 51°19.742 2°57.867 75.3 14.3 69 12.2
2005-06-15 07:03:41 51°19.748 2°57.89 75.1 14.3 68 12.2
2005-06-15 07:03:47 51°19.757 2°57.925 74.5 14.3 68 12.2
2005-06-15 07:03:52 51°19.765 2°57.957 73.6 14.3 67 12.2
2005-06-15 07:03:57 51°19.773 2°57.987 73.7 14.3 67 12.2
2005-06-15 07:04:02 51°19.781 2°58.016 73.6 14.3 67 12.2
2005-06-15 07:04:06 51°19.787 2°58.04 73.2 14.3 67 12.1
2005-06-15 07:04:12 51°19.796 2°58.071 72.8 14.3 67 12.1
2005-06-15 07:04:17 51°19.803 2°58.101 73 14.3 68 12.2
2005-06-15 07:04:21 51°19.811 2°58.127 73.2 14.3 66 12.2
2005-06-15 07:04:27 51°19.819 2°58.159 73.1 14.3 67 12.2
2005-06-15 07:04:32 51°19.828 2°58.191 73.1 14.2 67 12.1
2005-06-15 07:04:37 51°19.834 2°58.217 73.4 14.2 68 12.1
2005-06-15 07:04:42 51°19.842 2°58.249 74 14.3 68 12.1
2005-06-15 07:04:46 51°19.848 2°58.273 74.1 14.3 68 12.2
2005-06-15 07:04:52 51°19.856 2°58.309 75.6 14.3 68 12.1
2005-06-15 07:04:57 51°19.862 2°58.335 76.5 14.2 71 12.1
2005-06-15 07:05:02 51°19.868 2°58.369 77.5 14.3 72 12.1
2005-06-15 07:05:07 51°19.875 2°58.399 78.1 14.3 72 12.1
2005-06-15 07:05:12 51°19.879 2°58.426 79 14.2 74 12
2005-06-15 07:05:17 51°19.886 2°58.459 79.5 14.3 73 12
2005-06-15 07:05:21 51°19.89 2°58.48 79.2 14.3 72 12
2005-06-15 07:05:27 51°19.898 2°58.516 79.2 14.3 72 12
2005-06-15 07:05:31 51°19.903 2°58.544 78.7 14.2 73 12
2005-06-15 07:05:37 51°19.91 2°58.577 78.7 14.2 73 12
2005-06-15 07:05:42 51°19.916 2°58.61 78.2 14.3 72 12
2005-06-15 07:05:48 51°19.923 2°58.643 78.2 14.3 73 12
2005-06-15 07:05:53 51°19.929 2°58.673 78.3 14.2 72 11.9
2005-06-15 07:05:57 51°19.934 2°58.697 78.5 14.3 72 11.9
2005-06-15 07:06:02 51°19.94 2°58.731 78.6 14.3 72 11.9
2005-06-15 07:06:07 51°19.947 2°58.761 78.6 14.3 72 11.9
2005-06-15 07:06:11 51°19.952 2°58.785 78 14.3 72 11.9
2005-06-15 07:06:17 51°19.959 2°58.821 78.1 14.3 72 11.9
2005-06-15 07:06:22 51°19.965 2°58.851 78.3 14.3 72 11.8
2005-06-15 07:06:26 51°19.969 2°58.872 78.5 14.3 72 11.8
2005-06-15 07:06:31 51°19.975 2°58.902 78.7 14.3 73 11.8
2005-06-15 07:06:37 51°19.983 2°58.941 78.3 14.3 73 11.8
2005-06-15 07:06:42 51°19.989 2°58.971 78.3 14.3 73 11.9
2005-06-15 07:06:46 51°19.993 2°58.995 78.5 14.2 73 11.8
2005-06-15 07:06:53 51°20.001 2°59.035 79.5 14.2 73 11.8
2005-06-15 07:06:57 51°20.007 2°59.062 79 14.4 73 11.8
2005-06-15 07:07:02 51°20.013 2°59.092 79 14.3 73 11.8
2005-06-15 07:07:07 51°20.018 2°59.122 78.8 14.2 73 11.8
2005-06-15 07:07:12 51°20.024 2°59.15 79.1 14.3 73 11.8
2005-06-15 07:07:17 51°20.03 2°59.18 78.9 14.3 73 11.8
2005-06-15 07:07:22 51°20.037 2°59.213 78.3 14.4 73 11.8
2005-06-15 07:07:27 51°20.043 2°59.243 77.6 14.4 71 11.8
2005-06-15 07:07:32 51°20.049 2°59.27 78.1 14.4 72 11.7
2005-06-15 07:07:37 51°20.055 2°59.301 78.3 14.4 72 11.8
2005-06-15 07:07:42 51°20.062 2°59.334 77.8 14.4 71 11.7
2005-06-15 07:07:47 51°20.069 2°59.361 77.4 14.4 71 11.7
2005-06-15 07:07:52 51°20.076 2°59.394 77 14.5 71 11.7
2005-06-15 07:07:57 51°20.082 2°59.421 76.8 14.5 70 11.7
2005-06-15 07:08:02 51°20.09 2°59.454 76.7 14.4 70 11.7
2005-06-15 07:08:07 51°20.096 2°59.482 77.1 14.5 70 11.7
2005-06-15 07:08:12 51°20.103 2°59.515 77.1 14.4 71 11.6
2005-06-15 07:08:17 51°20.109 2°59.545 77.5 14.4 71 11.7
2005-06-15 07:08:22 51°20.115 2°59.575 78.1 14.4 71 11.7
2005-06-15 07:08:26 51°20.121 2°59.599 78.3 14.5 71 11.7
2005-06-15 07:08:32 51°20.128 2°59.636 77.7 14.5 71 11.7
2005-06-15 07:08:37 51°20.134 2°59.663 78.4 14.3 71 11.7
2005-06-15 07:08:42 51°20.14 2°59.696 78.8 14.3 71 11.7
2005-06-15 07:08:46 51°20.145 2°59.721 79.2 14.3 71 11.7
2005-06-15 07:08:52 51°20.153 2°59.757 78.6 14.3 72 11.6
2005-06-15 07:08:57 51°20.158 2°59.784 78.9 14.3 72 11.7
2005-06-15 07:09:02 51°20.165 2°59.817 78.7 14.3 71 11.6
2005-06-15 07:09:07 51°20.172 2°59.847 78.3 14.3 71 11.6
2005-06-15 07:09:12 51°20.179 2°59.877 77.7 14.3 70 11.6
2005-06-15 07:09:17 51°20.185 2°59.907 77.6 14.3 70 11.6
2005-06-15 07:09:22 51°20.192 2°59.937 77.6 14.3 70 11.6
2005-06-15 07:09:27 51°20.198 2°59.967 77.6 14.3 71 11.6
2005-06-15 07:09:32 51°20.204 2°59.997 77.8 14.3 70 11.6
2005-06-15 07:09:37 51°20.21 3°0.024 77.8 14.2 72 11.6
2005-06-15 07:09:42 51°20.217 3°0.057 78.3 14.2 72 11.6
2005-06-15 07:09:47 51°20.223 3°0.087 78.4 14.2 72 11.6
2005-06-15 07:09:52 51°20.228 3°0.117 78.9 14.2 73 11.6
2005-06-15 07:09:57 51°20.234 3°0.144 79.1 14.2 73 11.6
2005-06-15 07:10:01 51°20.239 3°0.168 78.8 14.3 72 11.6
2005-06-15 07:10:07 51°20.246 3°0.204 78.9 14.3 73 11.6
2005-06-15 07:10:12 51°20.253 3°0.237 78.5 14.2 72 11.5
2005-06-15 07:10:17 51°20.259 3°0.264 78.4 14.2 72 11.6
2005-06-15 07:10:22 51°20.265 3°0.297 78.4 14.2 72 11.6
2005-06-15 07:10:27 51°20.271 3°0.327 79 14.2 72 11.6
2005-06-15 07:10:32 51°20.278 3°0.356 78.9 14.2 72 11.6
2005-06-15 07:10:37 51°20.283 3°0.383 78.3 14.2 72 11.6
2005-06-15 07:10:42 51°20.29 3°0.416 78.4 14.1 72 11.6
2005-06-15 07:10:46 51°20.295 3°0.44 78.6 14.2 71 11.6
2005-06-15 07:10:52 51°20.303 3°0.476 78.2 14.2 71 11.6
2005-06-15 07:10:57 51°20.309 3°0.503 77.9 14.2 71 11.5
2005-06-15 07:11:02 51°20.315 3°0.535 77.6 14.2 71 11.5
2005-06-15 07:11:06 51°20.32 3°0.559 78.2 14.2 72 11.6
2005-06-15 07:11:12 51°20.328 3°0.595 78.1 14.2 71 11.5
2005-06-15 07:11:17 51°20.333 3°0.621 78.4 14.1 72 11.5
2005-06-15 07:11:22 51°20.34 3°0.654 78.6 14.1 72 11.5
2005-06-15 07:11:27 51°20.346 3°0.681 78.5 14.1 72 11.5
2005-06-15 07:11:32 51°20.351 3°0.711 78.5 14.1 72 11.6
2005-06-15 07:11:37 51°20.358 3°0.743 78.6 14.1 72 11.5
2005-06-15 07:11:42 51°20.363 3°0.77 78.8 14.1 72 11.4
2005-06-15 07:11:47 51°20.369 3°0.799 79.7 14.1 74 11.5
2005-06-15 07:11:52 51°20.376 3°0.832 78.1 14.1 71 11.5
2005-06-15 07:11:57 51°20.382 3°0.858 77.7 14 72 11.5
2005-06-15 07:12:02 51°20.388 3°0.891 78.2 14 72 11.4
2005-06-15 07:12:07 51°20.394 3°0.918 78.5 14 72 11.4
2005-06-15 07:12:13 51°20.4 3°0.953 78.8 14 73 11.4
2005-06-15 07:12:17 51°20.405 3°0.977 79.4 14 72 11.5
2005-06-15 07:12:22 51°20.411 3°1.009 79.6 14 72 11.4
2005-06-15 07:12:28 51°20.417 3°1.042 79.9 14 74 11.4
2005-06-15 07:12:32 51°20.422 3°1.068 79.7 14 72 11.4
2005-06-15 07:12:37 51°20.428 3°1.095 79.2 14 72 11.4
2005-06-15 07:12:42 51°20.434 3°1.124 79 14 72 11.3
2005-06-15 07:12:46 51°20.439 3°1.15 78.4 14 72 11.3
2005-06-15 07:12:52 51°20.446 3°1.183 78.4 14 72 11.3
2005-06-15 07:12:57 51°20.452 3°1.212 78 14 72 11.4
2005-06-15 07:13:02 51°20.459 3°1.244 77.8 -999 -999 11.3
2005-06-15 07:13:07 51°20.465 3°1.27 77.7 13.9 72 11.4
2005-06-15 07:13:12 51°20.472 3°1.302 77.6 13.9 70 11.4
2005-06-15 07:13:17 51°20.478 3°1.328 77.4 13.9 70 11.6
2005-06-15 07:13:22 51°20.484 3°1.36 77.6 13.9 71 11.4
2005-06-15 07:13:27 51°20.491 3°1.39 77.4 13.9 70 11.3
2005-06-15 07:13:32 51°20.497 3°1.419 77.2 13.9 70 11.3
2005-06-15 07:13:37 51°20.503 3°1.448 77.8 13.9 71 11.3
2005-06-15 07:13:42 51°20.509 3°1.477 77.8 13.9 72 11.3
2005-06-15 07:13:47 51°20.515 3°1.506 78.3 13.9 72 11.3
2005-06-15 07:13:52 51°20.521 3°1.536 78.5 14 72 11.3
2005-06-15 07:13:57 51°20.526 3°1.562 78.9 13.9 73 11.3
2005-06-15 07:14:02 51°20.532 3°1.595 79.2 13.9 73 11.3
2005-06-15 07:14:07 51°20.537 3°1.621 79.3 13.9 73 11.2
2005-06-15 07:14:12 51°20.543 3°1.654 79.6 13.9 73 11.3
2005-06-15 07:14:17 51°20.548 3°1.68 78.7 13.9 73 11.3
2005-06-15 07:14:21 51°20.554 3°1.707 78.6 14 73 11.3
2005-06-15 07:14:26 51°20.559 3°1.737 79.3 14 73 11.3
2005-06-15 07:14:32 51°20.566 3°1.772 79.3 14.1 73 11.3
2005-06-15 07:14:37 51°20.572 3°1.802 79.3 14.1 73 11.3
2005-06-15 07:14:42 51°20.578 3°1.831 78.5 14 72 11.3
2005-06-15 07:14:47 51°20.584 3°1.858 78.6 14 71 11.3
2005-06-15 07:14:52 51°20.59 3°1.89 77.8 14 71 11.3
2005-06-15 07:14:57 51°20.596 3°1.917 77.5 14 72 11.2
2005-06-15 07:15:02 51°20.602 3°1.946 78.1 14 72 11.3
2005-06-15 07:15:07 51°20.609 3°1.979 78.2 14 72 11.4
2005-06-15 07:15:12 51°20.615 3°2.008 78.2 14 71 11.4
2005-06-15 07:15:17 51°20.62 3°2.034 77.6 14 71 11.4
2005-06-15 07:15:21 51°20.625 3°2.061 77.6 14 71 11.4
2005-06-15 07:15:26 51°20.631 3°2.091 78.4 14 71 11.3
2005-06-15 07:15:32 51°20.638 3°2.127 78.8 14 71 11.4
2005-06-15 07:15:37 51°20.643 3°2.157 78.9 14 73 11.4
2005-06-15 07:15:42 51°20.649 3°2.186 79.5 14 73 11.4
2005-06-15 07:15:47 51°20.654 3°2.213 79.5 14 73 11.3
2005-06-15 07:15:52 51°20.662 3°2.245 78.7 14 74 11.4
2005-06-15 07:15:57 51°20.668 3°2.271 77.5 14.1 70 11.4
2005-06-15 07:16:02 51°20.674 3°2.3 76.2 14.1 70 11.4
2005-06-15 07:16:08 51°20.683 3°2.335 75.7 14.1 70 11.4
2005-06-15 07:16:12 51°20.688 3°2.358 75.4 14 69 11.4
2005-06-15 07:16:17 51°20.695 3°2.388 75.4 14 69 11.4
2005-06-15 07:16:22 51°20.702 3°2.417 75.6 14 69 11.3
2005-06-15 07:16:28 51°20.71 3°2.452 75 14 69 11.3
2005-06-15 07:16:32 51°20.716 3°2.476 75.1 14.1 70 11.4
2005-06-15 07:16:37 51°20.722 3°2.505 75.1 14.1 70 11.3
2005-06-15 07:16:42 51°20.73 3°2.534 75.5 14.1 70 11.4
2005-06-15 07:16:47 51°20.737 3°2.563 75.3 14.1 70 11.3
2005-06-15 07:16:52 51°20.745 3°2.595 74.8 14.1 70 11.4
2005-06-15 07:16:57 51°20.751 3°2.622 74.6 14 70 11.4
2005-06-15 07:17:02 51°20.758 3°2.654 75.2 14.1 69 11.4
2005-06-15 07:17:06 51°20.764 3°2.678 75.1 14.1 69 11.4
2005-06-15 07:17:13 51°20.773 3°2.715 74.4 14.2 68 11.4
2005-06-15 07:17:17 51°20.779 3°2.739 74.1 14.1 69 11.4
2005-06-15 07:17:22 51°20.787 3°2.771 74.4 14.1 69 11.4
2005-06-15 07:17:27 51°20.794 3°2.797 74.3 14.2 69 11.4
2005-06-15 07:17:33 51°20.801 3°2.833 74.4 14.1 70 11.4
2005-06-15 07:17:37 51°20.807 3°2.856 75.1 14.2 70 11.4
2005-06-15 07:17:41 51°20.812 3°2.88 75.6 14.1 70 11.4
2005-06-15 07:17:47 51°20.821 3°2.918 76 14.1 70 11.4
2005-06-15 07:17:52 51°20.828 3°2.948 75.4 14.1 70 11.4
2005-06-15 07:17:57 51°20.835 3°2.977 75.6 14.2 70 11.4
2005-06-15 07:18:03 51°20.842 3°3.01 75.5 14.2 70 11.4
2005-06-15 07:18:07 51°20.848 3°3.033 74.9 14.1 69 11.5
2005-06-15 07:18:12 51°20.855 3°3.065 74.9 14.1 70 11.5
2005-06-15 07:18:17 51°20.862 3°3.092 75 14.2 68 11.4
2005-06-15 07:18:22 51°20.87 3°3.124 74.4 14.2 68 11.4
2005-06-15 07:18:26 51°20.875 3°3.147 74.7 14.2 69 11.4
2005-06-15 07:18:32 51°20.884 3°3.183 74.7 14.2 69 11.4
2005-06-15 07:18:37 51°20.89 3°3.209 75 14.2 69 11.4
2005-06-15 07:18:42 51°20.897 3°3.239 75 14.3 69 11.4
2005-06-15 07:18:46 51°20.904 3°3.265 74.1 14.3 69 11.4
2005-06-15 07:18:52 51°20.913 3°3.3 74.3 14.2 69 11.4
2005-06-15 07:18:57 51°20.919 3°3.327 73.7 14.3 68 11.4
2005-06-15 07:19:02 51°20.927 3°3.356 73.5 14.3 68 11.5
2005-06-15 07:19:06 51°20.933 3°3.383 73.9 14.3 68 11.4
2005-06-15 07:19:12 51°20.942 3°3.418 74.1 14.3 69 11.5
2005-06-15 07:19:17 51°20.948 3°3.444 74 14.2 70 11.5
2005-06-15 07:19:22 51°20.956 3°3.474 74.7 14.3 68 11.5
2005-06-15 07:19:26 51°20.962 3°3.5 74.5 14.2 70 11.5
2005-06-15 07:19:33 51°20.971 3°3.539 74.5 14.2 70 11.6
2005-06-15 07:19:37 51°20.977 3°3.562 74.7 14.2 70 11.6
2005-06-15 07:19:42 51°20.984 3°3.594 74.9 14.2 70 11.6
2005-06-15 07:19:47 51°20.991 3°3.624 74.8 14.2 69 11.6
2005-06-15 07:19:52 51°20.998 3°3.653 74.9 14.2 70 11.6
2005-06-15 07:19:57 51°21.005 3°3.683 75.4 14.2 69 11.6
2005-06-15 07:20:02 51°21.012 3°3.711 75.2 13.9 68 11.6
2005-06-15 07:20:07 51°21.018 3°3.737 74.6 13.1 69 11.7
2005-06-15 07:20:12 51°21.025 3°3.761 74.1 12.2 67 11.7
2005-06-15 07:20:17 51°21.031 3°3.784 74 11.6 69 11.8
2005-06-15 07:20:22 51°21.036 3°3.806 73.3 11 66 11.8
2005-06-15 07:20:28 51°21.043 3°3.827 72.6 10.2 66 11.8
2005-06-15 07:20:32 51°21.047 3°3.842 72.1 9.4 65 11.9
2005-06-15 07:20:37 51°21.052 3°3.859 71 9.4 65 11.9
2005-06-15 07:20:42 51°21.058 3°3.874 69.5 9.4 65 11.9
2005-06-15 07:20:48 51°21.065 3°3.889 66 9.4 65 11.9
2005-06-15 07:20:52 51°21.069 3°3.899 61.9 9.4 65 11.9
2005-06-15 07:20:57 51°21.074 3°3.908 56.9 9.4 65 11.9
2005-06-15 07:21:02 51°21.08 3°3.918 52.3 -999 -999 11.9
2005-06-15 07:21:07 51°21.085 3°3.924 47.9 5.4 45 11.9
2005-06-15 07:21:12 51°21.09 3°3.931 44.1 4.9 43 11.9
2005-06-15 07:21:17 51°21.093 3°3.936 41.4 4.1 40 11.9
2005-06-15 07:21:22 51°21.098 3°3.942 39.7 3.8 40 12
2005-06-15 07:21:27 51°21.102 3°3.947 38.2 3.8 40 12
2005-06-15 07:21:32 51°21.106 3°3.952 36.8 3.7 39 12.1
2005-06-15 07:21:37 51°21.11 3°3.956 36 3.6 35 12
2005-06-15 07:21:42 51°21.114 3°3.961 34.4 3.6 35 12
2005-06-15 07:21:46 51°21.117 3°3.965 33.3 3.5 35 12
2005-06-15 07:21:52 51°21.122 3°3.97 32.3 3.4 35 12.1
2005-06-15 07:21:57 51°21.125 3°3.973 31.5 3.4 32 12
2005-06-15 07:22:01 51°21.129 3°3.977 30.9 3.4 32 12.1
2005-06-15 07:22:07 51°21.134 3°3.981 30.3 3.4 32 12.1
2005-06-15 07:22:12 51°21.138 3°3.986 29.3 3.4 32 12.1
2005-06-15 07:22:17 51°21.143 3°3.99 28.9 3.4 32 12.1
2005-06-15 07:22:22 51°21.148 3°3.995 28.5 3.4 32 12.1
2005-06-15 07:22:27 51°21.153 3°4 28.5 -999 -999 12.1
2005-06-15 07:22:32 51°21.158 3°4.005 28.8 4.2 30 12.1
2005-06-15 07:22:37 51°21.163 3°4.009 29.3 4.2 30 12.2
2005-06-15 07:22:42 51°21.168 3°4.014 30.4 4.2 30 12.2
2005-06-15 07:22:46 51°21.174 3°4.019 31.2 4.7 30 12.2
2005-06-15 07:22:52 51°21.18 3°4.026 32.5 4.8 33 12.2
2005-06-15 07:22:57 51°21.186 3°4.033 33.8 4.8 33 12.2
2005-06-15 07:23:02 51°21.191 3°4.039 35.1 5 34 12.3
2005-06-15 07:23:06 51°21.196 3°4.044 36.5 5 34 12.2
2005-06-15 07:23:12 51°21.203 3°4.052 37.9 5.1 36 12.2
2005-06-15 07:23:17 51°21.208 3°4.059 39.8 5.1 39 12.3
2005-06-15 07:23:22 51°21.213 3°4.066 41.1 5.1 39 12.2
2005-06-15 07:23:27 51°21.219 3°4.074 42.3 5.2 40 12.3
2005-06-15 07:23:32 51°21.225 3°4.082 44 5.2 40 12.3
2005-06-15 07:23:37 51°21.23 3°4.089 45.1 5.2 40 12.3
2005-06-15 07:23:42 51°21.235 3°4.098 46.1 5.3 43 12.3
2005-06-15 07:23:47 51°21.24 3°4.106 47.6 5.3 45 12.4
2005-06-15 07:23:53 51°21.246 3°4.116 49.4 5.3 45 12.4
2005-06-15 07:23:57 51°21.251 3°4.124 51.4 5.3 47 12.3
2005-06-15 07:24:02 51°21.255 3°4.133 53.3 5.4 50 12.4
2005-06-15 07:24:07 51°21.26 3°4.142 55.2 5.4 51 12.4
2005-06-15 07:24:12 51°21.264 3°4.152 56.9 5.4 51 12.4
2005-06-15 07:24:17 51°21.269 3°4.161 58.1 5.4 51 12.4
2005-06-15 07:24:21 51°21.272 3°4.168 59.3 5.4 53 12.4
2005-06-15 07:24:26 51°21.277 3°4.179 60.3 5.4 53 12.4
2005-06-15 07:24:32 51°21.282 3°4.191 61.1 5.4 53 12.3
2005-06-15 07:24:37 51°21.286 3°4.2 61.9 5.4 56 12.4
2005-06-15 07:24:42 51°21.29 3°4.21 62.9 5.4 57 12.4
2005-06-15 07:24:47 51°21.294 3°4.22 64 5.4 57 12.4
2005-06-15 07:24:52 51°21.298 3°4.231 64.8 5.4 58 12.4
2005-06-15 07:24:57 51°21.302 3°4.241 65.7 5.4 58 12.5
2005-06-15 07:25:01 51°21.305 3°4.249 66.7 5.4 58 12.5
2005-06-15 07:25:07 51°21.309 3°4.262 67.4 5.4 61 12.5
2005-06-15 07:25:12 51°21.313 3°4.273 68.2 5.4 61 12.5
2005-06-15 07:25:17 51°21.316 3°4.283 68.9 5.4 61 12.5
2005-06-15 07:25:22 51°21.32 3°4.294 70.5 5.4 61 12.5
2005-06-15 07:25:27 51°21.323 3°4.304 71.8 5.4 61 12.5
2005-06-15 07:25:33 51°21.326 3°4.317 73.5 5.3 66 12.5
2005-06-15 07:25:37 51°21.328 3°4.327 75.2 5.3 66 12.4
2005-06-15 07:25:41 51°21.33 3°4.334 77.2 5.2 70 12.5
2005-06-15 07:25:46 51°21.333 3°4.346 79.1 5.2 73 12.5
2005-06-15 07:25:53 51°21.336 3°4.361 80.5 5.2 73 12.4
2005-06-15 07:25:57 51°21.337 3°4.369 81.5 5.2 73 12.5
2005-06-15 07:26:01 51°21.339 3°4.378 82.3 5.2 71 12.4
2005-06-15 07:26:07 51°21.342 3°4.392 82.9 5.2 71 12.5
2005-06-15 07:26:13 51°21.344 3°4.404 83.2 5.2 71 12.4
2005-06-15 07:26:17 51°21.346 3°4.414 83.6 5.2 76 12.5
2005-06-15 07:26:22 51°21.348 3°4.425 83.8 5.2 72 12.5
2005-06-15 07:26:27 51°21.35 3°4.435 84.1 5.1 76 12.5
2005-06-15 07:26:32 51°21.352 3°4.445 84.2 5 75 12.5
2005-06-15 07:26:37 51°21.354 3°4.456 84.5 5 75 12.5
2005-06-15 07:26:42 51°21.356 3°4.467 84.7 5 71 12.6
2005-06-15 07:26:47 51°21.358 3°4.478 84.9 4.8 75 12.5
2005-06-15 07:26:52 51°21.36 3°4.488 85.1 4.7 75 12.5
2005-06-15 07:26:57 51°21.361 3°4.498 85.4 4.7 75 12.5
2005-06-15 07:27:01 51°21.362 3°4.504 85.6 4.6 74 12.5
2005-06-15 07:27:07 51°21.364 3°4.516 85.8 4.4 75 12.6
2005-06-15 07:27:12 51°21.366 3°4.526 86.1 4.4 75 12.5
2005-06-15 07:27:17 51°21.367 3°4.534 86.4 4.3 73 12.5
2005-06-15 07:27:22 51°21.369 3°4.543 87 4.3 73 12.5
2005-06-15 07:27:26 51°21.37 3°4.549 87.6 4.3 73 12.5
2005-06-15 07:27:32 51°21.372 3°4.559 88.1 3.9 74 12.5
2005-06-15 07:27:37 51°21.373 3°4.567 88.9 3.9 75 12.5
2005-06-15 07:27:42 51°21.375 3°4.576 89.3 3.8 75 12.5
2005-06-15 07:27:47 51°21.376 3°4.583 90 3.8 75 12.5
2005-06-15 07:27:52 51°21.377 3°4.592 90.5 3.7 75 12.5
2005-06-15 07:27:57 51°21.378 3°4.599 91.1 3.7 75 12.5
2005-06-15 07:28:02 51°21.379 3°4.606 91.4 3.6 76 12.5
2005-06-15 07:28:06 51°21.381 3°4.613 91.8 3.5 76 12.5
2005-06-15 07:28:12 51°21.382 3°4.622 92.4 3.5 77 12.5
2005-06-15 07:28:17 51°21.383 3°4.628 92.6 3.5 77 12.5
2005-06-15 07:28:22 51°21.384 3°4.636 93 3.4 78 12.5
2005-06-15 07:28:28 51°21.385 3°4.644 93 3.4 78 12.5
2005-06-15 07:28:32 51°21.386 3°4.651 93.4 3.3 77 12.6
2005-06-15 07:28:37 51°21.387 3°4.657 93.4 3.4 76 12.5
2005-06-15 07:28:42 51°21.388 3°4.665 93.6 3.4 76 12.5
2005-06-15 07:28:47 51°21.389 3°4.672 93.4 3.3 76 12.5
2005-06-15 07:28:52 51°21.39 3°4.679 93.1 3.3 78 12.5
2005-06-15 07:28:57 51°21.391 3°4.686 92.7 3.3 78 12.5
2005-06-15 07:29:02 51°21.393 3°4.693 92.4 3.3 77 12.5
2005-06-15 07:29:07 51°21.394 3°4.7 92 3.3 74 12.5
2005-06-15 07:29:12 51°21.395 3°4.707 91.6 3.3 72 12.5
2005-06-15 07:29:17 51°21.396 3°4.714 91 3.3 73 12.5
2005-06-15 07:29:22 51°21.398 3°4.721 90.8 3.2 76 12.5
2005-06-15 07:29:26 51°21.398 3°4.727 90.2 3.3 73 12.5
2005-06-15 07:29:32 51°21.4 3°4.735 90.2 3.2 76 12.5
2005-06-15 07:29:38 51°21.401 3°4.743 89.8 3.2 76 12.5
2005-06-15 07:29:42 51°21.403 3°4.749 89.8 3.2 76 12.5
2005-06-15 07:29:48 51°21.404 3°4.756 89.4 3.2 75 12.5
2005-06-15 07:29:52 51°21.405 3°4.762 89.4 3.2 69 12.5
2005-06-15 07:29:57 51°21.406 3°4.768 89.3 3.2 69 12.5
2005-06-15 07:30:02 51°21.408 3°4.776 89.4 3.2 69 12.5
2005-06-15 07:30:07 51°21.409 3°4.782 89.3 3.2 69 12.5
2005-06-15 07:30:12 51°21.41 3°4.789 89.5 3.2 71 12.5
2005-06-15 07:30:17 51°21.411 3°4.795 89.6 3.1 76 12.5
2005-06-15 07:30:21 51°21.412 3°4.8 89.7 3.1 71 12.5
2005-06-15 07:30:26 51°21.414 3°4.807 89.7 3.1 73 12.5
2005-06-15 07:30:32 51°21.415 3°4.815 89.8 3.1 73 12.5
2005-06-15 07:30:37 51°21.416 3°4.822 89.8 3.1 73 12.5
2005-06-15 07:30:42 51°21.417 3°4.828 89.9 3.1 73 12.5
2005-06-15 07:30:47 51°21.419 3°4.835 90 3.1 71 12.5
2005-06-15 07:30:52 51°21.42 3°4.841 90 3 77 12.5
2005-06-15 07:30:57 51°21.421 3°4.847 90.3 3.1 70 12.5
2005-06-15 07:31:02 51°21.422 3°4.854 90.3 3.1 70 12.5
2005-06-15 07:31:06 51°21.423 3°4.859 90.6 3.1 71 12.5
2005-06-15 07:31:12 51°21.425 3°4.866 90.7 3.1 71 12.5
2005-06-15 07:31:17 51°21.426 3°4.873 90.7 3.1 70 12.5
2005-06-15 07:31:21 51°21.426 3°4.879 91 3 78 12.5
2005-06-15 07:31:27 51°21.428 3°4.887 91.1 3 78 12.5
2005-06-15 07:31:32 51°21.429 3°4.893 91.3 3.1 76 12.5
2005-06-15 07:31:37 51°21.43 3°4.899 91.3 3.1 71 12.5
2005-06-15 07:31:41 51°21.431 3°4.905 91.5 3.1 75 12.5
2005-06-15 07:31:47 51°21.432 3°4.912 91.5 3.1 73 12.5
2005-06-15 07:31:52 51°21.434 3°4.919 91.8 3.1 78 12.5
2005-06-15 07:31:57 51°21.435 3°4.925 91.9 3.1 72 12.5
2005-06-15 07:32:02 51°21.436 3°4.932 92.1 3.1 74 12.5
2005-06-15 07:32:06 51°21.437 3°4.938 92.3 3.1 74 12.5
2005-06-15 07:32:12 51°21.438 3°4.946 92.1 3.1 75 12.5
2005-06-15 07:32:17 51°21.439 3°4.952 92.3 3.1 75 12.5
2005-06-15 07:32:22 51°21.44 3°4.958 92.3 3.1 80 12.5
2005-06-15 07:32:26 51°21.441 3°4.964 92.4 3.1 80 12.5
2005-06-15 07:32:32 51°21.442 3°4.972 92.6 3.1 76 12.6
2005-06-15 07:32:37 51°21.443 3°4.979 92.7 3.1 76 12.5
2005-06-15 07:32:42 51°21.444 3°4.986 92.7 3.1 79 12.5
2005-06-15 07:32:47 51°21.445 3°4.992 92.9 3.1 79 12.5
2005-06-15 07:32:52 51°21.447 3°4.999 92.9 3 78 12.6
2005-06-15 07:32:57 51°21.447 3°5.005 93 3.1 74 12.5
2005-06-15 07:33:01 51°21.448 3°5.01 93.1 3.1 80 12.5
2005-06-15 07:33:07 51°21.449 3°5.018 93.1 3.1 80 12.5
2005-06-15 07:33:13 51°21.45 3°5.026 93.2 3 80 12.6
2005-06-15 07:33:17 51°21.451 3°5.031 93.2 3 80 12.5
2005-06-15 07:33:22 51°21.452 3°5.038 93.2 3.1 79 12.5
2005-06-15 07:33:27 51°21.453 3°5.046 93.4 3.1 75 12.5
2005-06-15 07:33:32 51°21.454 3°5.052 93.4 3.1 78 12.5
2005-06-15 07:33:37 51°21.455 3°5.058 93.4 3.1 75 12.5
2005-06-15 07:33:42 51°21.456 3°5.066 93.4 3.1 78 12.5
2005-06-15 07:33:46 51°21.457 3°5.071 93.3 3.1 73 12.5
2005-06-15 07:33:52 51°21.458 3°5.079 93.4 3.1 76 12.5
2005-06-15 07:33:57 51°21.459 3°5.085 93.1 3.1 76 12.5
2005-06-15 07:34:02 51°21.46 3°5.093 93.3 3.1 76 12.6
2005-06-15 07:34:06 51°21.461 3°5.098 93 3.2 73 12.5
2005-06-15 07:34:12 51°21.462 3°5.106 93.3 3.1 74 12.6
2005-06-15 07:34:17 51°21.462 3°5.112 93.2 3.1 74 12.5
2005-06-15 07:34:22 51°21.464 3°5.119 93.6 3.1 74 12.5
2005-06-15 07:34:27 51°21.465 3°5.126 93.3 3.1 74 12.5
2005-06-15 07:34:32 51°21.466 3°5.133 93.6 3.1 78 12.5
2005-06-15 07:34:37 51°21.466 3°5.139 93.6 3.1 74 12.5
2005-06-15 07:34:42 51°21.468 3°5.145 93.8 3.1 77 12.5
2005-06-15 07:34:47 51°21.468 3°5.152 93.8 3.1 75 12.6
2005-06-15 07:34:52 51°21.47 3°5.16 93.9 3.1 75 12.6
2005-06-15 07:34:57 51°21.47 3°5.165 93.9 3.1 82 12.5
2005-06-15 07:35:02 51°21.471 3°5.173 93.9 3.1 82 12.5
2005-06-15 07:35:07 51°21.472 3°5.18 93.9 3.1 82 12.5
2005-06-15 07:35:12 51°21.473 3°5.186 93.7 3.1 75 12.5
2005-06-15 07:35:17 51°21.474 3°5.192 93.7 3 81 12.5
2005-06-15 07:35:22 51°21.475 3°5.199 93.6 3 81 12.5
2005-06-15 07:35:27 51°21.476 3°5.205 93.6 3 80 12.5
2005-06-15 07:35:32 51°21.477 3°5.212 93.6 3.1 77 12.5
2005-06-15 07:35:37 51°21.478 3°5.218 93.4 3 80 12.5
2005-06-15 07:35:42 51°21.479 3°5.226 93.6 3 80 12.5
2005-06-15 07:35:47 51°21.48 3°5.232 93.2 3 77 12.5
2005-06-15 07:35:52 51°21.48 3°5.239 93.4 3 77 12.5
2005-06-15 07:35:57 51°21.481 3°5.245 93.2 3 77 12.5
2005-06-15 07:36:02 51°21.482 3°5.251 93.1 3 77 12.6
2005-06-15 07:36:06 51°21.483 3°5.257 93.1 3 81 12.5
2005-06-15 07:36:12 51°21.484 3°5.265 93 3 76 12.5
2005-06-15 07:36:17 51°21.486 3°5.271 93.4 3 76 12.6